createdAt,value
2017-11-24T00:02:34.305Z,16.50
2017-11-24T00:05:15.060Z,17.27
2017-11-24T00:07:51.623Z,24.67
2017-11-24T00:10:29.831Z,22.02
2017-11-24T00:13:05.884Z,19.10
2017-11-24T00:15:41.588Z,23.30
2017-11-24T00:18:18.944Z,18.08
2017-11-24T00:20:53.896Z,19.45
2017-11-24T00:23:27.682Z,17.33
2017-11-24T00:26:07.340Z,19.37
2017-11-24T00:28:43.697Z,16.00
2017-11-24T00:31:18.942Z,13.65
2017-11-24T00:33:54.871Z,11.25
2017-11-24T00:36:30.189Z,11.90
2017-11-24T00:39:05.055Z,20.75
2017-11-24T00:41:42.311Z,11.02
2017-11-24T00:44:17.596Z,9.98
2017-11-24T00:46:51.680Z,8.82
2017-11-24T00:49:26.206Z,6.68
2017-11-24T00:52:02.624Z,11.02
2017-11-24T00:54:37.605Z,4.00
2017-11-24T00:57:14.226Z,10.85
2017-11-24T00:59:49.312Z,7.40
2017-11-24T01:02:24.301Z,4.75
2017-11-24T01:04:58.043Z,2.75
2017-11-24T01:07:35.944Z,8.07
2017-11-24T01:10:11.667Z,5.45
2017-11-24T01:12:47.208Z,4.65
2017-11-24T01:15:23.923Z,7.25
2017-11-24T01:17:59.025Z,7.80
2017-11-24T01:20:35.238Z,5.05
2017-11-24T01:23:09.316Z,6.28
2017-11-24T01:25:44.962Z,6.10
2017-11-24T01:28:21.484Z,12.57
2017-11-24T01:31:00.124Z,7.18
2017-11-24T01:33:38.941Z,5.57
2017-11-24T01:36:14.791Z,4.00
2017-11-24T01:38:49.548Z,6.03
2017-11-24T01:41:28.208Z,9.43
2017-11-24T01:44:04.374Z,5.15
2017-11-24T01:46:38.955Z,6.70
2017-11-24T01:49:17.409Z,4.45
2017-11-24T01:51:57.495Z,3.92
2017-11-24T01:54:32.627Z,5.97
2017-11-24T01:57:09.278Z,5.93
2017-11-24T01:59:46.243Z,9.25
2017-11-24T02:02:23.808Z,10.40
2017-11-24T02:04:59.170Z,8.80
2017-11-24T02:07:34.262Z,5.40
2017-11-24T02:10:10.707Z,7.45
2017-11-24T02:12:45.600Z,7.87
2017-11-24T02:15:20.384Z,7.85
2017-11-24T02:17:58.241Z,5.75
2017-11-24T02:20:34.204Z,5.40
2017-11-24T02:23:10.219Z,9.15
2017-11-24T02:25:46.139Z,4.57
2017-11-24T02:28:21.836Z,5.93
2017-11-24T02:30:59.276Z,2.45
2017-11-24T02:33:35.868Z,3.87
2017-11-24T02:36:09.950Z,7.82
2017-11-24T02:38:44.316Z,4.60
2017-11-24T02:41:22.552Z,4.80
2017-11-24T02:43:57.559Z,5.70
2017-11-24T02:46:32.484Z,4.53
2017-11-24T02:49:06.388Z,5.28
2017-11-24T02:51:40.778Z,4.05
2017-11-24T02:54:16.597Z,4.03
2017-11-24T02:56:51.453Z,5.70
2017-11-24T02:59:25.375Z,6.53
2017-11-24T03:02:03.994Z,3.37
2017-11-24T03:04:37.963Z,2.50
2017-11-24T03:07:12.027Z,5.12
2017-11-24T03:09:45.954Z,3.35
2017-11-24T03:12:20.406Z,3.80
2017-11-24T03:14:55.079Z,2.60
2017-11-24T03:17:29.932Z,3.15
2017-11-24T03:20:06.718Z,5.75
2017-11-24T03:22:41.664Z,10.45
2017-11-24T03:25:17.031Z,3.97
2017-11-24T03:27:52.635Z,7.85
2017-11-24T03:30:27.452Z,9.32
2017-11-24T03:33:01.959Z,5.53
2017-11-24T03:35:36.607Z,11.60
2017-11-24T03:38:14.025Z,10.30
2017-11-24T03:40:48.141Z,17.17
2017-11-24T03:43:27.385Z,16.92
2017-11-24T03:46:01.142Z,11.63
2017-11-24T03:48:38.447Z,11.73
2017-11-24T03:51:14.147Z,9.27
2017-11-24T03:53:50.139Z,12.90
2017-11-24T03:56:23.900Z,3.70
2017-11-24T03:58:58.710Z,5.28
2017-11-24T04:01:33.693Z,4.03
2017-11-24T04:04:11.228Z,4.80
2017-11-24T04:06:45.067Z,5.57
2017-11-24T04:09:20.481Z,10.63
2017-11-24T04:11:55.379Z,6.28
2017-11-24T04:14:30.283Z,8.88
2017-11-24T04:17:12.316Z,11.32
2017-11-24T04:19:47.881Z,6.90
2017-11-24T04:22:27.514Z,5.95
2017-11-24T04:25:06.292Z,5.50
2017-11-24T04:27:42.559Z,4.28
2017-11-24T04:30:16.310Z,9.70
2017-11-24T04:32:51.276Z,5.20
2017-11-24T04:35:27.529Z,2.85
2017-11-24T04:38:04.288Z,8.23
2017-11-24T04:40:39.856Z,2.95
2017-11-24T04:43:16.378Z,8.27
2017-11-24T04:45:50.984Z,7.22
2017-11-24T04:48:29.617Z,5.15
2017-11-24T04:51:05.670Z,10.88
2017-11-24T04:53:44.038Z,5.90
2017-11-24T04:56:18.687Z,5.35
2017-11-24T04:58:56.070Z,7.62
2017-11-24T05:01:30.503Z,6.95
2017-11-24T05:04:06.245Z,4.40
2017-11-24T05:06:40.321Z,4.65
2017-11-24T05:09:16.550Z,16.25
2017-11-24T05:11:50.337Z,7.68
2017-11-24T05:14:27.004Z,5.57
2017-11-24T05:17:05.127Z,3.50
2017-11-24T05:19:42.207Z,3.85
2017-11-24T05:22:17.471Z,4.03
2017-11-24T05:24:51.799Z,6.15
2017-11-24T05:27:26.531Z,4.65
2017-11-24T05:30:00.751Z,4.85
2017-11-24T05:32:36.583Z,7.07
2017-11-24T05:35:13.077Z,3.90
2017-11-24T05:37:47.888Z,11.32
2017-11-24T05:40:21.597Z,10.48
2017-11-24T05:42:56.992Z,5.35
2017-11-24T05:45:30.822Z,8.35
2017-11-24T05:48:05.875Z,6.10
2017-11-24T05:50:41.919Z,6.87
2017-11-24T05:53:17.544Z,9.20
2017-11-24T05:55:54.059Z,9.38
2017-11-24T05:58:28.269Z,8.82
2017-11-24T06:01:03.464Z,10.13
2017-11-24T06:03:37.292Z,11.82
2017-11-24T06:06:11.703Z,14.95
2017-11-24T06:08:46.999Z,7.10
2017-11-24T06:11:23.667Z,9.52
2017-11-24T06:13:58.409Z,12.63
2017-11-24T06:16:32.232Z,6.90
2017-11-24T06:19:06.626Z,9.55
2017-11-24T06:21:41.031Z,9.50
2017-11-24T06:24:15.565Z,8.88
2017-11-24T06:26:50.150Z,9.48
2017-11-24T06:29:24.055Z,7.12
2017-11-24T06:31:57.730Z,9.10
2017-11-24T06:34:34.054Z,6.80
2017-11-24T06:37:08.651Z,7.20
2017-11-24T06:39:44.918Z,7.20
2017-11-24T06:42:21.972Z,8.05
2017-11-24T06:44:55.774Z,11.18
2017-11-24T06:47:29.634Z,11.95
2017-11-24T06:50:04.969Z,21.62
2017-11-24T06:52:39.717Z,14.80
2017-11-24T06:55:13.776Z,12.90
2017-11-24T06:57:47.811Z,7.40
2017-11-24T07:00:25.231Z,9.45
2017-11-24T07:02:59.092Z,16.02
2017-11-24T07:05:33.710Z,32.75
2017-11-24T07:08:07.565Z,18.62
2017-11-24T07:10:43.335Z,50.63
2017-11-24T07:13:17.006Z,36.63
2017-11-24T07:15:51.633Z,28.52
2017-11-24T07:18:25.496Z,16.30
2017-11-24T07:20:59.931Z,19.33
2017-11-24T07:23:36.135Z,6.50
2017-11-24T07:26:11.020Z,6.90
2017-11-24T07:28:46.516Z,10.48
2017-11-24T07:31:21.222Z,11.90
2017-11-24T07:33:55.089Z,10.02
2017-11-24T07:36:29.899Z,15.15
2017-11-24T07:39:06.554Z,14.00
2017-11-24T07:41:40.913Z,26.75
2017-11-24T07:44:16.025Z,18.80
2017-11-24T07:46:50.887Z,17.55
2017-11-24T07:49:24.534Z,17.48
2017-11-24T07:51:58.249Z,11.35
2017-11-24T07:54:32.912Z,10.15
2017-11-24T07:57:06.505Z,7.82
2017-11-24T07:59:40.388Z,10.05
2017-11-24T08:02:14.700Z,9.05
2017-11-24T08:04:48.408Z,9.90
2017-11-24T08:07:24.850Z,7.72
2017-11-24T08:09:58.557Z,11.40
2017-11-24T08:12:33.059Z,8.25
2017-11-24T08:15:10.039Z,10.30
2017-11-24T08:17:43.865Z,9.00
2017-11-24T08:20:20.133Z,7.05
2017-11-24T08:22:58.319Z,6.72
2017-11-24T08:25:32.126Z,6.12
2017-11-24T08:28:06.168Z,5.15
2017-11-24T08:30:43.057Z,13.10
2017-11-24T08:33:18.185Z,6.18
2017-11-24T08:35:53.893Z,8.40
2017-11-24T08:38:27.683Z,9.23
2017-11-24T08:41:03.903Z,8.93
2017-11-24T08:43:37.815Z,9.45
2017-11-24T08:46:12.390Z,12.35
2017-11-24T08:48:52.944Z,7.95
2017-11-24T08:51:28.532Z,5.97
2017-11-24T08:54:03.737Z,3.25
2017-11-24T08:56:39.582Z,4.22
2017-11-24T08:59:14.304Z,4.87
2017-11-24T09:01:49.067Z,9.57
2017-11-24T09:04:23.829Z,9.15
2017-11-24T09:07:00.250Z,6.18
2017-11-24T09:09:35.912Z,7.78
2017-11-24T09:12:09.626Z,3.50
2017-11-24T09:14:45.140Z,4.82
2017-11-24T09:17:19.055Z,5.82
2017-11-24T09:19:53.595Z,18.52
2017-11-24T09:22:29.619Z,5.65
2017-11-24T09:25:03.337Z,9.68
2017-11-24T09:27:38.222Z,10.52
2017-11-24T09:30:12.829Z,4.55
2017-11-24T09:32:46.691Z,6.68
2017-11-24T09:35:20.409Z,6.28
2017-11-24T09:37:55.027Z,5.50
2017-11-24T09:40:28.851Z,3.12
2017-11-24T09:43:02.748Z,3.17
2017-11-24T09:45:37.250Z,2.65
2017-11-24T09:48:12.370Z,5.68
2017-11-24T09:50:46.860Z,8.10
2017-11-24T09:53:21.543Z,3.00
2017-11-24T09:55:56.171Z,15.73
2017-11-24T09:58:30.940Z,6.60
2017-11-24T10:01:05.050Z,2.47
2017-11-24T10:03:39.975Z,4.82
2017-11-24T10:06:13.693Z,6.65
2017-11-24T10:08:50.550Z,2.62
2017-11-24T10:11:24.458Z,3.40
2017-11-24T10:13:59.425Z,2.15
2017-11-24T10:16:33.733Z,2.95
2017-11-24T10:19:07.317Z,6.22
2017-11-24T10:21:48.985Z,11.75
2017-11-24T10:24:24.189Z,11.00
2017-11-24T10:26:58.143Z,3.12
2017-11-24T10:29:31.915Z,5.12
2017-11-24T10:32:07.454Z,8.80
2017-11-24T10:34:41.129Z,3.80
2017-11-24T10:37:15.998Z,4.37
2017-11-24T10:39:49.749Z,3.62
2017-11-24T10:42:24.204Z,7.00
2017-11-24T10:44:57.855Z,4.35
2017-11-24T10:47:31.655Z,7.05
2017-11-24T10:50:05.472Z,4.87
2017-11-24T10:52:40.121Z,6.28
2017-11-24T10:55:14.697Z,4.85
2017-11-24T10:57:49.986Z,5.40
2017-11-24T11:00:25.176Z,3.10
2017-11-24T11:02:58.782Z,4.93
2017-11-24T11:05:32.612Z,7.07
2017-11-24T11:08:06.390Z,17.50
2017-11-24T11:10:40.909Z,2.35
2017-11-24T11:13:15.429Z,1.30
2017-11-24T11:15:49.191Z,2.95
2017-11-24T11:18:22.949Z,4.20
2017-11-24T11:20:57.808Z,2.53
2017-11-24T11:23:32.405Z,3.20
2017-11-24T11:26:06.121Z,4.87
2017-11-24T11:28:39.744Z,1.50
2017-11-24T11:31:14.465Z,3.80
2017-11-24T11:33:49.389Z,1.40
2017-11-24T11:36:23.980Z,1.17
2017-11-24T11:38:57.676Z,2.30
2017-11-24T11:41:31.476Z,1.20
2017-11-24T11:44:05.874Z,1.50
2017-11-24T11:46:40.323Z,1.23
2017-11-24T11:49:14.126Z,19.05
2017-11-24T11:51:48.532Z,14.65
2017-11-24T11:54:23.101Z,8.27
2017-11-24T11:56:56.817Z,8.73
2017-11-24T11:59:32.447Z,4.62
2017-11-24T12:02:06.168Z,2.17
2017-11-24T12:04:40.995Z,2.05
2017-11-24T12:07:14.794Z,10.10
2017-11-24T12:09:48.447Z,11.32
2017-11-24T12:12:22.209Z,3.17
2017-11-24T12:14:56.030Z,3.17
2017-11-24T12:17:31.518Z,3.22
2017-11-24T12:20:05.613Z,5.22
2017-11-24T12:22:39.493Z,14.38
2017-11-24T12:25:14.058Z,6.50
2017-11-24T12:27:47.868Z,3.00
2017-11-24T12:30:21.653Z,5.05
2017-11-24T12:32:56.417Z,5.90
2017-11-24T12:35:30.199Z,2.28
2017-11-24T12:38:04.069Z,5.65
2017-11-24T12:40:38.651Z,5.95
2017-11-24T12:43:12.521Z,3.25
2017-11-24T12:45:46.984Z,2.67
2017-11-24T12:48:20.872Z,14.55
2017-11-24T12:50:54.533Z,4.62
2017-11-24T12:53:29.004Z,4.03
2017-11-24T12:56:02.660Z,6.87
2017-11-24T12:58:36.235Z,9.23
2017-11-24T13:01:10.945Z,3.42
2017-11-24T13:03:44.700Z,4.85
2017-11-24T13:06:20.276Z,5.43
2017-11-24T13:08:54.084Z,4.82
2017-11-24T13:11:28.485Z,13.95
2017-11-24T13:14:02.097Z,4.05
2017-11-24T13:16:35.717Z,11.70
2017-11-24T13:19:10.253Z,3.65
2017-11-24T13:21:44.891Z,8.80
2017-11-24T13:24:18.564Z,8.85
2017-11-24T13:26:52.144Z,13.77
2017-11-24T13:29:25.771Z,7.72
2017-11-24T13:31:59.500Z,10.93
2017-11-24T13:34:33.119Z,13.20
2017-11-24T13:37:07.606Z,16.00
2017-11-24T13:39:41.227Z,9.65
2017-11-24T13:42:14.917Z,7.93
2017-11-24T13:44:48.462Z,7.72
2017-11-24T13:47:22.202Z,4.50
2017-11-24T13:49:55.792Z,6.55
2017-11-24T13:52:29.306Z,6.47
2017-11-24T13:55:02.922Z,3.83
2017-11-24T13:57:36.500Z,13.32
2017-11-24T14:00:10.054Z,4.97
2017-11-24T14:02:43.736Z,8.93
2017-11-24T14:05:18.567Z,6.78
2017-11-24T14:07:52.269Z,7.10
2017-11-24T14:10:26.819Z,14.35
2017-11-24T14:13:00.488Z,22.65
2017-11-24T14:15:34.196Z,15.88
2017-11-24T14:18:08.877Z,15.43
2017-11-24T14:20:42.424Z,10.60
2017-11-24T14:23:15.990Z,19.62
2017-11-24T14:25:49.618Z,12.90
2017-11-24T14:28:24.126Z,36.88
2017-11-24T14:31:01.844Z,5.68
2017-11-24T14:33:39.288Z,6.65
2017-11-24T14:36:13.758Z,7.87
2017-11-24T14:38:47.477Z,13.73
2017-11-24T14:41:28.282Z,5.68
2017-11-24T14:44:05.165Z,7.28
2017-11-24T14:46:41.010Z,6.32
2017-11-24T14:49:17.035Z,20.15
2017-11-24T14:51:54.490Z,13.65
2017-11-24T14:54:34.029Z,17.42
2017-11-24T14:57:08.640Z,19.10
2017-11-24T14:59:43.112Z,14.52
2017-11-24T15:02:19.019Z,16.23
2017-11-24T15:04:54.304Z,9.98
2017-11-24T15:07:31.079Z,13.75
2017-11-24T15:10:05.052Z,8.77
2017-11-24T15:12:39.820Z,7.47
2017-11-24T15:15:14.224Z,9.35
2017-11-24T15:17:54.084Z,4.78
2017-11-24T15:20:28.695Z,5.85
2017-11-24T15:23:03.484Z,4.82
2017-11-24T15:25:39.386Z,11.27
2017-11-24T15:28:18.463Z,8.88
2017-11-24T15:30:53.406Z,12.95
2017-11-24T15:33:31.977Z,12.18
2017-11-24T15:36:07.679Z,7.43
2017-11-24T15:38:43.980Z,12.25
2017-11-24T15:41:22.827Z,49.08
2017-11-24T15:43:59.602Z,13.90
2017-11-24T15:46:39.762Z,29.80
2017-11-24T15:49:15.465Z,21.23
2017-11-24T15:51:49.415Z,25.88
2017-11-24T15:54:26.469Z,17.42
2017-11-24T15:57:01.888Z,21.42
2017-11-24T15:59:38.162Z,37.50
2017-11-24T16:02:14.639Z,32.08
2017-11-24T16:04:49.639Z,25.42
2017-11-24T16:07:25.957Z,42.45
2017-11-24T16:10:01.204Z,27.55
2017-11-24T16:12:35.730Z,26.40
2017-11-24T16:15:14.699Z,31.10
2017-11-24T16:17:52.590Z,37.03
2017-11-24T16:20:28.121Z,36.83
2017-11-24T16:23:02.486Z,31.20
2017-11-24T16:25:37.453Z,26.62
2017-11-24T16:28:11.268Z,54.35
2017-11-24T16:30:48.020Z,84.00
2017-11-24T16:33:24.065Z,110.63
2017-11-24T16:36:00.211Z,87.07
2017-11-24T16:38:33.805Z,102.62
2017-11-24T16:41:08.217Z,96.55
2017-11-24T16:43:41.925Z,74.15
2017-11-24T16:46:15.512Z,66.25
2017-11-24T16:48:49.064Z,73.43
2017-11-24T16:51:23.062Z,64.20
2017-11-24T16:53:56.646Z,120.28
2017-11-24T16:56:30.222Z,55.70
2017-11-24T16:59:04.702Z,17.55
2017-11-24T17:01:38.374Z,41.65
2017-11-24T17:04:12.743Z,33.80
2017-11-24T17:06:46.495Z,19.62
2017-11-24T17:09:20.027Z,20.25
2017-11-24T17:11:53.755Z,34.08
2017-11-24T17:14:27.275Z,17.45
2017-11-24T17:17:00.865Z,27.65
2017-11-24T17:19:34.441Z,38.08
2017-11-24T17:22:08.384Z,19.45
2017-11-24T17:24:42.091Z,30.55
2017-11-24T17:27:15.700Z,19.45
2017-11-24T17:29:49.409Z,24.15
2017-11-24T17:32:22.972Z,12.35
2017-11-24T17:34:56.579Z,22.37
2017-11-24T17:37:30.176Z,16.65
2017-11-24T17:40:03.737Z,17.27
2017-11-24T17:42:37.488Z,16.65
2017-11-24T17:45:11.042Z,13.55
2017-11-24T17:47:45.503Z,24.35
2017-11-24T17:50:19.180Z,9.65
2017-11-24T17:52:52.709Z,8.65
2017-11-24T17:55:27.047Z,9.40
2017-11-24T17:58:01.539Z,12.43
2017-11-24T18:00:36.060Z,15.75
2017-11-24T18:03:09.660Z,6.70
2017-11-24T18:05:44.087Z,13.82
2017-11-24T18:08:17.811Z,25.58
2017-11-24T18:10:51.442Z,26.67
2017-11-24T18:13:24.985Z,37.53
2017-11-24T18:15:59.560Z,29.85
2017-11-24T18:18:33.371Z,32.47
2017-11-24T18:21:07.657Z,24.20
2017-11-24T18:23:41.255Z,23.75
2017-11-24T18:26:14.842Z,25.83
2017-11-24T18:28:48.371Z,25.60
2017-11-24T18:31:21.947Z,98.35
2017-11-24T18:33:56.469Z,51.90
2017-11-24T18:36:30.241Z,30.77
2017-11-24T18:39:04.580Z,21.87
2017-11-24T18:41:39.058Z,37.63
2017-11-24T18:44:12.708Z,33.33
2017-11-24T18:46:46.363Z,41.88
2017-11-24T18:49:24.893Z,40.30
2017-11-24T18:52:01.613Z,41.97
2017-11-24T18:54:35.372Z,35.72
2017-11-24T18:57:09.055Z,47.40
2017-11-24T18:59:43.508Z,51.85
2017-11-24T19:02:18.144Z,47.50
2017-11-24T19:04:51.745Z,37.50
2017-11-24T19:07:25.370Z,42.78
2017-11-24T19:09:58.970Z,35.85
2017-11-24T19:12:32.561Z,45.20
2017-11-24T19:15:06.067Z,42.20
2017-11-24T19:17:39.659Z,181.40
2017-11-24T19:20:13.361Z,119.30
2017-11-24T19:22:46.978Z,49.78
2017-11-24T19:25:21.469Z,25.83
2017-11-24T19:27:55.218Z,27.45
2017-11-24T19:30:28.957Z,27.13
2017-11-24T19:33:03.290Z,24.75
2017-11-24T19:35:37.010Z,12.25
2017-11-24T19:38:10.624Z,13.65
2017-11-24T19:40:44.195Z,20.17
2017-11-24T19:43:17.768Z,43.50
2017-11-24T19:45:52.226Z,43.87
2017-11-24T19:48:25.769Z,38.45
2017-11-24T19:50:59.576Z,34.05
2017-11-24T19:53:33.158Z,29.55
2017-11-24T19:56:06.997Z,39.83
2017-11-24T19:58:40.627Z,23.85
2017-11-24T20:01:14.267Z,14.13
2017-11-24T20:03:47.834Z,19.35
2017-11-24T20:06:21.370Z,13.48
2017-11-24T20:08:55.054Z,16.12
2017-11-24T20:11:28.904Z,15.50
2017-11-24T20:14:02.500Z,26.87
2017-11-24T20:16:36.842Z,142.35
2017-11-24T20:19:10.483Z,101.78
2017-11-24T20:21:44.113Z,30.55
2017-11-24T20:24:18.387Z,56.05
2017-11-24T20:26:51.963Z,51.03
2017-11-24T20:29:25.795Z,52.25
2017-11-24T20:31:59.335Z,40.17
2017-11-24T20:34:32.904Z,33.63
2017-11-24T20:37:06.480Z,40.30
2017-11-24T20:39:40.032Z,31.23
2017-11-24T20:42:13.676Z,41.95
2017-11-24T20:44:47.340Z,44.78
2017-11-24T20:47:21.038Z,32.78
2017-11-24T20:49:54.638Z,49.72
2017-11-24T20:52:28.327Z,44.72
2017-11-24T20:55:01.926Z,46.70
2017-11-24T20:57:35.472Z,41.72
2017-11-24T21:00:09.874Z,48.10
2017-11-24T21:02:43.507Z,47.58
2017-11-24T21:05:17.102Z,58.58
2017-11-24T21:07:50.873Z,55.15
2017-11-24T21:10:24.556Z,49.10
2017-11-24T21:12:58.082Z,54.97
2017-11-24T21:15:31.617Z,61.30
2017-11-24T21:18:05.929Z,52.03
2017-11-24T21:20:40.311Z,47.25
2017-11-24T21:23:14.769Z,54.38
2017-11-24T21:25:48.540Z,60.28
2017-11-24T21:28:22.146Z,50.80
2017-11-24T21:30:55.777Z,59.03
2017-11-24T21:33:30.265Z,56.85
2017-11-24T21:36:04.048Z,48.03
2017-11-24T21:38:37.850Z,60.95
2017-11-24T21:41:11.347Z,128.30
2017-11-24T21:43:44.902Z,81.25
2017-11-24T21:46:18.518Z,49.13
2017-11-24T21:48:52.119Z,55.72
2017-11-24T21:51:25.777Z,52.67
2017-11-24T21:53:59.499Z,54.95
2017-11-24T21:56:33.006Z,48.72
2017-11-24T21:59:06.575Z,64.70
2017-11-24T22:01:40.153Z,61.85
2017-11-24T22:04:13.765Z,55.15
2017-11-24T22:06:47.428Z,65.93
2017-11-24T22:09:21.294Z,65.85
2017-11-24T22:11:55.226Z,64.12
2017-11-24T22:14:28.960Z,66.95
2017-11-24T22:17:02.753Z,56.72
2017-11-24T22:19:36.446Z,48.60
2017-11-24T22:22:10.025Z,49.80
2017-11-24T22:24:43.789Z,45.33
2017-11-24T22:27:17.432Z,80.60
2017-11-24T22:29:51.163Z,52.88
2017-11-24T22:32:24.936Z,42.22
2017-11-24T22:34:58.730Z,45.47
2017-11-24T22:37:32.295Z,48.03
2017-11-24T22:40:06.071Z,40.55
2017-11-24T22:42:39.836Z,49.10
2017-11-24T22:45:13.448Z,50.67
2017-11-24T22:47:47.123Z,44.17
2017-11-24T22:50:21.897Z,43.97
2017-11-24T22:52:55.749Z,39.63
2017-11-24T22:55:31.567Z,49.50
2017-11-24T22:58:09.867Z,54.22
2017-11-24T23:00:44.384Z,57.08
2017-11-24T23:03:18.274Z,47.60
2017-11-24T23:05:52.328Z,51.45
2017-11-24T23:08:26.773Z,59.92
2017-11-24T23:11:00.859Z,60.67
2017-11-24T23:13:34.586Z,32.78
2017-11-24T23:16:08.314Z,46.30
2017-11-24T23:18:41.951Z,40.12
2017-11-24T23:21:15.760Z,34.28
2017-11-24T23:23:51.146Z,28.52
2017-11-24T23:26:24.952Z,25.15
2017-11-24T23:28:58.836Z,26.10
2017-11-24T23:31:33.254Z,24.95
2017-11-24T23:34:07.558Z,27.35
2017-11-24T23:36:42.381Z,29.20
2017-11-24T23:39:16.106Z,25.15
2017-11-24T23:41:49.864Z,29.85
2017-11-24T23:44:24.042Z,25.50
2017-11-24T23:46:58.679Z,29.87
2017-11-24T23:49:32.535Z,32.78
2017-11-24T23:52:07.295Z,29.42
2017-11-24T23:54:41.898Z,33.10
2017-11-24T23:57:16.879Z,30.52
2017-11-24T23:59:51.188Z,39.20
